sensor_id;sensor_type;location;lat;lon;timestamp;P1;durP1;ratioP1;P2;durP2;ratioP2
19879;SDS011;10102;50.828;4.416;2022-11-15T00:01:36;29.58;;;16.63;;
19879;SDS011;10102;50.828;4.416;2022-11-15T00:04:02;28.92;;;16.50;;
19879;SDS011;10102;50.828;4.416;2022-11-15T00:06:29;27.40;;;17.05;;
19879;SDS011;10102;50.828;4.416;2022-11-15T00:08:55;27.50;;;15.95;;
19879;SDS011;10102;50.828;4.416;2022-11-15T00:11:23;28.17;;;17.17;;
19879;SDS011;10102;50.828;4.416;2022-11-15T00:13:49;28.48;;;17.23;;
19879;SDS011;10102;50.828;4.416;2022-11-15T00:16:15;26.48;;;17.90;;
19879;SDS011;10102;50.828;4.416;2022-11-15T00:18:41;29.73;;;17.95;;
19879;SDS011;10102;50.828;4.416;2022-11-15T00:21:11;37.90;;;18.00;;
19879;SDS011;10102;50.828;4.416;2022-11-15T00:23:37;28.38;;;17.40;;
19879;SDS011;10102;50.828;4.416;2022-11-15T00:26:03;26.63;;;16.63;;
19879;SDS011;10102;50.828;4.416;2022-11-15T00:28:29;28.67;;;18.35;;
19879;SDS011;10102;50.828;4.416;2022-11-15T00:31:02;28.50;;;17.40;;
19879;SDS011;10102;50.828;4.416;2022-11-15T00:33:29;34.45;;;17.67;;
19879;SDS011;10102;50.828;4.416;2022-11-15T00:38:30;31.55;;;18.42;;
19879;SDS011;10102;50.828;4.416;2022-11-15T00:41:00;30.38;;;17.55;;
19879;SDS011;10102;50.828;4.416;2022-11-15T00:43:26;31.63;;;19.00;;
19879;SDS011;10102;50.828;4.416;2022-11-15T00:45:52;34.90;;;18.05;;
19879;SDS011;10102;50.828;4.416;2022-11-15T00:48:18;29.50;;;17.27;;
19879;SDS011;10102;50.828;4.416;2022-11-15T00:50:44;30.92;;;17.63;;
19879;SDS011;10102;50.828;4.416;2022-11-15T00:53:09;31.13;;;18.77;;
19879;SDS011;10102;50.828;4.416;2022-11-15T00:55:35;34.97;;;19.50;;
19879;SDS011;10102;50.828;4.416;2022-11-15T00:58:01;37.35;;;19.83;;
19879;SDS011;10102;50.828;4.416;2022-11-15T01:00:27;39.40;;;20.10;;
19879;SDS011;10102;50.828;4.416;2022-11-15T01:02:53;41.55;;;20.23;;
19879;SDS011;10102;50.828;4.416;2022-11-15T01:05:18;40.58;;;20.73;;
19879;SDS011;10102;50.828;4.416;2022-11-15T01:07:44;36.88;;;20.90;;
19879;SDS011;10102;50.828;4.416;2022-11-15T01:10:10;38.35;;;23.17;;
19879;SDS011;10102;50.828;4.416;2022-11-15T01:12:36;41.53;;;21.67;;
19879;SDS011;10102;50.828;4.416;2022-11-15T01:15:02;34.50;;;20.98;;
19879;SDS011;10102;50.828;4.416;2022-11-15T01:17:29;37.65;;;22.00;;
19879;SDS011;10102;50.828;4.416;2022-11-15T01:19:56;37.67;;;20.83;;
19879;SDS011;10102;50.828;4.416;2022-11-15T01:22:22;36.67;;;21.30;;
19879;SDS011;10102;50.828;4.416;2022-11-15T01:24:49;34.03;;;21.67;;
19879;SDS011;10102;50.828;4.416;2022-11-15T01:27:15;34.17;;;20.60;;
19879;SDS011;10102;50.828;4.416;2022-11-15T01:29:41;34.35;;;20.42;;
19879;SDS011;10102;50.828;4.416;2022-11-15T01:32:07;35.67;;;22.20;;
19879;SDS011;10102;50.828;4.416;2022-11-15T01:34:33;34.78;;;20.05;;
19879;SDS011;10102;50.828;4.416;2022-11-15T01:36:58;30.92;;;20.02;;
19879;SDS011;10102;50.828;4.416;2022-11-15T01:39:24;30.98;;;18.63;;
19879;SDS011;10102;50.828;4.416;2022-11-15T01:41:51;31.67;;;17.13;;
19879;SDS011;10102;50.828;4.416;2022-11-15T01:47:23;31.88;;;17.67;;
19879;SDS011;10102;50.828;4.416;2022-11-15T01:49:56;28.73;;;17.05;;
19879;SDS011;10102;50.828;4.416;2022-11-15T01:52:24;31.42;;;15.95;;
19879;SDS011;10102;50.828;4.416;2022-11-15T01:54:56;28.15;;;15.38;;
19879;SDS011;10102;50.828;4.416;2022-11-15T01:57:41;28.02;;;14.88;;
19879;SDS011;10102;50.828;4.416;2022-11-15T02:00:09;26.98;;;14.63;;
19879;SDS011;10102;50.828;4.416;2022-11-15T02:02:35;28.25;;;14.98;;
19879;SDS011;10102;50.828;4.416;2022-11-15T02:05:04;24.23;;;14.75;;
19879;SDS011;10102;50.828;4.416;2022-11-15T02:07:30;25.00;;;13.23;;
19879;SDS011;10102;50.828;4.416;2022-11-15T02:10:01;22.35;;;14.27;;
19879;SDS011;10102;50.828;4.416;2022-11-15T02:12:38;25.20;;;13.57;;
19879;SDS011;10102;50.828;4.416;2022-11-15T02:15:04;21.98;;;13.98;;
19879;SDS011;10102;50.828;4.416;2022-11-15T02:26:43;27.17;;;13.68;;
19879;SDS011;10102;50.828;4.416;2022-11-15T02:29:33;21.92;;;12.45;;
19879;SDS011;10102;50.828;4.416;2022-11-15T02:32:21;26.60;;;13.00;;
19879;SDS011;10102;50.828;4.416;2022-11-15T02:38:18;19.08;;;13.45;;
19879;SDS011;10102;50.828;4.416;2022-11-15T02:41:07;22.75;;;11.60;;
19879;SDS011;10102;50.828;4.416;2022-11-15T02:46:32;21.80;;;12.65;;
19879;SDS011;10102;50.828;4.416;2022-11-15T02:49:34;22.20;;;12.52;;
19879;SDS011;10102;50.828;4.416;2022-11-15T02:52:01;28.23;;;13.55;;
19879;SDS011;10102;50.828;4.416;2022-11-15T02:54:31;21.05;;;12.00;;
19879;SDS011;10102;50.828;4.416;2022-11-15T02:57:00;21.02;;;12.90;;
19879;SDS011;10102;50.828;4.416;2022-11-15T03:04:37;15.85;;;10.05;;
19879;SDS011;10102;50.828;4.416;2022-11-15T03:07:20;22.10;;;10.90;;
19879;SDS011;10102;50.828;4.416;2022-11-15T03:10:02;15.90;;;9.68;;
19879;SDS011;10102;50.828;4.416;2022-11-15T03:12:45;12.10;;;8.95;;
19879;SDS011;10102;50.828;4.416;2022-11-15T03:15:29;15.38;;;9.60;;
19879;SDS011;10102;50.828;4.416;2022-11-15T03:20:27;15.55;;;9.07;;
19879;SDS011;10102;50.828;4.416;2022-11-15T03:22:55;13.88;;;8.77;;
19879;SDS011;10102;50.828;4.416;2022-11-15T03:25:33;20.50;;;8.77;;
19879;SDS011;10102;50.828;4.416;2022-11-15T03:28:02;13.05;;;8.15;;
19879;SDS011;10102;50.828;4.416;2022-11-15T03:30:32;14.35;;;8.05;;
19879;SDS011;10102;50.828;4.416;2022-11-15T03:32:59;15.02;;;8.13;;
19879;SDS011;10102;50.828;4.416;2022-11-15T03:35:27;13.75;;;7.50;;
19879;SDS011;10102;50.828;4.416;2022-11-15T03:38:22;11.75;;;7.35;;
19879;SDS011;10102;50.828;4.416;2022-11-15T03:40:49;15.75;;;7.25;;
19879;SDS011;10102;50.828;4.416;2022-11-15T03:46:06;13.27;;;6.80;;
19879;SDS011;10102;50.828;4.416;2022-11-15T03:48:39;10.68;;;5.90;;
19879;SDS011;10102;50.828;4.416;2022-11-15T03:51:11;13.65;;;6.32;;
19879;SDS011;10102;50.828;4.416;2022-11-15T03:53:38;14.10;;;6.45;;
19879;SDS011;10102;50.828;4.416;2022-11-15T03:56:05;9.63;;;6.28;;
19879;SDS011;10102;50.828;4.416;2022-11-15T03:58:31;13.38;;;6.05;;
19879;SDS011;10102;50.828;4.416;2022-11-15T04:04:22;17.02;;;6.35;;
19879;SDS011;10102;50.828;4.416;2022-11-15T04:06:47;9.30;;;5.93;;
19879;SDS011;10102;50.828;4.416;2022-11-15T04:09:13;10.45;;;5.78;;
19879;SDS011;10102;50.828;4.416;2022-11-15T04:11:39;10.10;;;6.30;;
19879;SDS011;10102;50.828;4.416;2022-11-15T04:14:04;10.00;;;5.90;;
19879;SDS011;10102;50.828;4.416;2022-11-15T04:16:30;11.60;;;6.95;;
19879;SDS011;10102;50.828;4.416;2022-11-15T04:18:55;11.95;;;6.03;;
19879;SDS011;10102;50.828;4.416;2022-11-15T04:21:40;11.50;;;5.93;;
19879;SDS011;10102;50.828;4.416;2022-11-15T04:24:24;8.68;;;5.72;;
19879;SDS011;10102;50.828;4.416;2022-11-15T04:26:49;12.55;;;6.28;;
19879;SDS011;10102;50.828;4.416;2022-11-15T04:29:15;14.73;;;7.00;;
19879;SDS011;10102;50.828;4.416;2022-11-15T04:32:00;14.85;;;6.28;;
19879;SDS011;10102;50.828;4.416;2022-11-15T04:34:26;11.95;;;5.95;;
19879;SDS011;10102;50.828;4.416;2022-11-15T04:36:52;12.55;;;6.60;;
19879;SDS011;10102;50.828;4.416;2022-11-15T04:39:37;11.13;;;6.45;;
19879;SDS011;10102;50.828;4.416;2022-11-15T04:42:03;9.60;;;6.68;;
19879;SDS011;10102;50.828;4.416;2022-11-15T04:44:28;10.57;;;6.05;;
19879;SDS011;10102;50.828;4.416;2022-11-15T04:46:54;15.77;;;7.07;;
19879;SDS011;10102;50.828;4.416;2022-11-15T04:49:20;14.57;;;7.25;;
19879;SDS011;10102;50.828;4.416;2022-11-15T04:51:46;11.55;;;6.25;;
19879;SDS011;10102;50.828;4.416;2022-11-15T04:54:11;12.30;;;5.78;;
19879;SDS011;10102;50.828;4.416;2022-11-15T04:56:37;11.00;;;6.10;;
19879;SDS011;10102;50.828;4.416;2022-11-15T04:59:03;11.93;;;5.78;;
19879;SDS011;10102;50.828;4.416;2022-11-15T05:01:28;16.23;;;6.53;;
19879;SDS011;10102;50.828;4.416;2022-11-15T05:03:54;11.45;;;5.78;;
19879;SDS011;10102;50.828;4.416;2022-11-15T05:06:38;9.07;;;5.57;;
19879;SDS011;10102;50.828;4.416;2022-11-15T05:09:04;12.75;;;5.10;;
19879;SDS011;10102;50.828;4.416;2022-11-15T05:11:29;10.60;;;5.20;;
19879;SDS011;10102;50.828;4.416;2022-11-15T05:13:55;10.75;;;5.25;;
19879;SDS011;10102;50.828;4.416;2022-11-15T05:16:21;8.45;;;5.43;;
19879;SDS011;10102;50.828;4.416;2022-11-15T05:18:50;9.80;;;4.80;;
19879;SDS011;10102;50.828;4.416;2022-11-15T05:21:19;11.55;;;4.90;;
19879;SDS011;10102;50.828;4.416;2022-11-15T05:23:45;10.27;;;4.78;;
19879;SDS011;10102;50.828;4.416;2022-11-15T05:26:12;12.27;;;4.40;;
19879;SDS011;10102;50.828;4.416;2022-11-15T05:28:40;17.58;;;4.47;;
19879;SDS011;10102;50.828;4.416;2022-11-15T05:31:06;10.23;;;4.07;;
19879;SDS011;10102;50.828;4.416;2022-11-15T05:33:33;14.15;;;4.07;;
19879;SDS011;10102;50.828;4.416;2022-11-15T05:36:02;9.07;;;4.15;;
19879;SDS011;10102;50.828;4.416;2022-11-15T05:38:32;15.32;;;4.22;;
19879;SDS011;10102;50.828;4.416;2022-11-15T05:40:59;6.32;;;4.22;;
19879;SDS011;10102;50.828;4.416;2022-11-15T05:43:26;7.43;;;4.63;;
19879;SDS011;10102;50.828;4.416;2022-11-15T05:46:09;10.93;;;4.03;;
19879;SDS011;10102;50.828;4.416;2022-11-15T05:48:36;10.45;;;4.25;;
19879;SDS011;10102;50.828;4.416;2022-11-15T05:51:05;8.02;;;3.65;;
19879;SDS011;10102;50.828;4.416;2022-11-15T05:53:32;10.75;;;4.15;;
19879;SDS011;10102;50.828;4.416;2022-11-15T05:55:59;10.10;;;4.38;;
19879;SDS011;10102;50.828;4.416;2022-11-15T05:58:25;14.73;;;4.68;;
19879;SDS011;10102;50.828;4.416;2022-11-15T06:00:51;11.48;;;3.95;;
19879;SDS011;10102;50.828;4.416;2022-11-15T06:03:16;12.77;;;4.32;;
19879;SDS011;10102;50.828;4.416;2022-11-15T06:05:42;14.50;;;4.78;;
19879;SDS011;10102;50.828;4.416;2022-11-15T06:08:08;11.88;;;5.15;;
19879;SDS011;10102;50.828;4.416;2022-11-15T06:10:33;10.10;;;5.25;;
19879;SDS011;10102;50.828;4.416;2022-11-15T06:12:59;10.05;;;4.30;;
19879;SDS011;10102;50.828;4.416;2022-11-15T06:15:26;10.40;;;4.88;;
19879;SDS011;10102;50.828;4.416;2022-11-15T06:17:52;10.27;;;4.40;;
19879;SDS011;10102;50.828;4.416;2022-11-15T06:20:22;8.60;;;4.45;;
19879;SDS011;10102;50.828;4.416;2022-11-15T06:22:49;10.55;;;4.47;;
19879;SDS011;10102;50.828;4.416;2022-11-15T06:25:15;11.27;;;4.35;;
19879;SDS011;10102;50.828;4.416;2022-11-15T06:27:40;9.32;;;4.55;;
19879;SDS011;10102;50.828;4.416;2022-11-15T06:30:06;10.40;;;4.50;;
19879;SDS011;10102;50.828;4.416;2022-11-15T06:32:32;14.27;;;4.90;;
19879;SDS011;10102;50.828;4.416;2022-11-15T06:34:58;13.55;;;5.70;;
19879;SDS011;10102;50.828;4.416;2022-11-15T06:37:23;11.75;;;4.90;;
19879;SDS011;10102;50.828;4.416;2022-11-15T06:39:49;16.23;;;4.97;;
19879;SDS011;10102;50.828;4.416;2022-11-15T06:42:15;11.45;;;4.85;;
19879;SDS011;10102;50.828;4.416;2022-11-15T06:44:40;8.88;;;4.32;;
19879;SDS011;10102;50.828;4.416;2022-11-15T06:47:06;9.18;;;4.90;;
19879;SDS011;10102;50.828;4.416;2022-11-15T06:49:31;10.95;;;5.03;;
19879;SDS011;10102;50.828;4.416;2022-11-15T06:51:57;10.18;;;4.13;;
19879;SDS011;10102;50.828;4.416;2022-11-15T06:54:23;12.40;;;4.22;;
19879;SDS011;10102;50.828;4.416;2022-11-15T06:56:48;10.27;;;4.40;;
19879;SDS011;10102;50.828;4.416;2022-11-15T06:59:14;6.22;;;4.25;;
19879;SDS011;10102;50.828;4.416;2022-11-15T07:01:40;7.75;;;4.07;;
19879;SDS011;10102;50.828;4.416;2022-11-15T07:04:05;7.05;;;4.07;;
19879;SDS011;10102;50.828;4.416;2022-11-15T07:06:31;8.68;;;4.50;;
19879;SDS011;10102;50.828;4.416;2022-11-15T07:08:57;12.35;;;4.80;;
19879;SDS011;10102;50.828;4.416;2022-11-15T07:11:22;5.03;;;3.83;;
19879;SDS011;10102;50.828;4.416;2022-11-15T07:13:48;9.93;;;4.18;;
19879;SDS011;10102;50.828;4.416;2022-11-15T07:16:13;7.00;;;4.50;;
19879;SDS011;10102;50.828;4.416;2022-11-15T07:18:39;9.98;;;5.25;;
19879;SDS011;10102;50.828;4.416;2022-11-15T07:21:06;10.90;;;4.53;;
19879;SDS011;10102;50.828;4.416;2022-11-15T07:23:35;9.32;;;4.68;;
19879;SDS011;10102;50.828;4.416;2022-11-15T07:26:03;8.77;;;4.65;;
19879;SDS011;10102;50.828;4.416;2022-11-15T07:28:29;8.90;;;4.93;;
19879;SDS011;10102;50.828;4.416;2022-11-15T07:30:54;11.57;;;4.85;;
19879;SDS011;10102;50.828;4.416;2022-11-15T07:33:20;13.55;;;4.80;;
19879;SDS011;10102;50.828;4.416;2022-11-15T07:35:46;5.93;;;3.90;;
19879;SDS011;10102;50.828;4.416;2022-11-15T07:38:15;7.70;;;4.47;;
19879;SDS011;10102;50.828;4.416;2022-11-15T07:40:44;7.70;;;4.05;;
19879;SDS011;10102;50.828;4.416;2022-11-15T07:43:10;7.00;;;4.40;;
19879;SDS011;10102;50.828;4.416;2022-11-15T07:45:45;8.27;;;4.03;;
19879;SDS011;10102;50.828;4.416;2022-11-15T07:48:10;6.13;;;4.32;;
19879;SDS011;10102;50.828;4.416;2022-11-15T07:50:36;10.05;;;4.15;;
19879;SDS011;10102;50.828;4.416;2022-11-15T07:53:05;10.35;;;4.20;;
19879;SDS011;10102;50.828;4.416;2022-11-15T07:55:32;6.72;;;4.18;;
19879;SDS011;10102;50.828;4.416;2022-11-15T07:58:05;6.88;;;4.78;;
19879;SDS011;10102;50.828;4.416;2022-11-15T08:00:32;6.35;;;4.47;;
19879;SDS011;10102;50.828;4.416;2022-11-15T08:03:12;7.50;;;4.18;;
19879;SDS011;10102;50.828;4.416;2022-11-15T08:05:40;7.75;;;3.75;;
19879;SDS011;10102;50.828;4.416;2022-11-15T08:08:07;7.57;;;4.05;;
19879;SDS011;10102;50.828;4.416;2022-11-15T08:10:34;8.02;;;3.92;;
19879;SDS011;10102;50.828;4.416;2022-11-15T08:13:00;6.53;;;3.35;;
19879;SDS011;10102;50.828;4.416;2022-11-15T08:15:32;6.57;;;3.75;;
19879;SDS011;10102;50.828;4.416;2022-11-15T08:18:02;8.55;;;3.22;;
19879;SDS011;10102;50.828;4.416;2022-11-15T08:20:30;7.10;;;2.75;;
19879;SDS011;10102;50.828;4.416;2022-11-15T08:22:56;8.68;;;3.38;;
19879;SDS011;10102;50.828;4.416;2022-11-15T08:25:23;5.60;;;2.70;;
19879;SDS011;10102;50.828;4.416;2022-11-15T08:27:55;10.10;;;2.92;;
19879;SDS011;10102;50.828;4.416;2022-11-15T08:30:22;11.82;;;3.08;;
19879;SDS011;10102;50.828;4.416;2022-11-15T08:32:48;5.43;;;2.45;;
19879;SDS011;10102;50.828;4.416;2022-11-15T08:35:15;5.68;;;2.53;;
19879;SDS011;10102;50.828;4.416;2022-11-15T08:37:41;8.60;;;2.45;;
19879;SDS011;10102;50.828;4.416;2022-11-15T08:40:07;5.32;;;2.22;;
19879;SDS011;10102;50.828;4.416;2022-11-15T08:42:33;6.95;;;2.47;;
19879;SDS011;10102;50.828;4.416;2022-11-15T08:44:59;5.70;;;2.95;;
19879;SDS011;10102;50.828;4.416;2022-11-15T08:47:25;5.00;;;2.67;;
19879;SDS011;10102;50.828;4.416;2022-11-15T08:49:51;5.63;;;2.65;;
19879;SDS011;10102;50.828;4.416;2022-11-15T08:52:17;13.35;;;2.58;;
19879;SDS011;10102;50.828;4.416;2022-11-15T08:54:43;6.70;;;3.03;;
19879;SDS011;10102;50.828;4.416;2022-11-15T08:57:08;4.80;;;2.40;;
19879;SDS011;10102;50.828;4.416;2022-11-15T08:59:35;5.65;;;2.30;;
19879;SDS011;10102;50.828;4.416;2022-11-15T09:02:02;5.93;;;2.10;;
19879;SDS011;10102;50.828;4.416;2022-11-15T09:04:28;7.72;;;2.33;;
19879;SDS011;10102;50.828;4.416;2022-11-15T09:06:54;5.40;;;2.05;;
19879;SDS011;10102;50.828;4.416;2022-11-15T09:09:20;6.85;;;2.17;;
19879;SDS011;10102;50.828;4.416;2022-11-15T09:11:46;7.82;;;2.30;;
19879;SDS011;10102;50.828;4.416;2022-11-15T09:14:13;2.72;;;1.80;;
19879;SDS011;10102;50.828;4.416;2022-11-15T09:16:39;8.15;;;2.15;;
19879;SDS011;10102;50.828;4.416;2022-11-15T09:19:05;6.85;;;2.38;;
19879;SDS011;10102;50.828;4.416;2022-11-15T09:21:31;7.10;;;2.40;;
19879;SDS011;10102;50.828;4.416;2022-11-15T09:23:57;8.52;;;2.63;;
19879;SDS011;10102;50.828;4.416;2022-11-15T09:26:23;7.63;;;2.17;;
19879;SDS011;10102;50.828;4.416;2022-11-15T09:28:49;8.05;;;1.92;;
19879;SDS011;10102;50.828;4.416;2022-11-15T09:31:15;6.05;;;2.28;;
19879;SDS011;10102;50.828;4.416;2022-11-15T09:33:43;9.02;;;2.13;;
19879;SDS011;10102;50.828;4.416;2022-11-15T09:36:09;6.70;;;1.92;;
19879;SDS011;10102;50.828;4.416;2022-11-15T09:38:35;5.60;;;2.30;;
19879;SDS011;10102;50.828;4.416;2022-11-15T09:46:30;6.35;;;1.85;;
19879;SDS011;10102;50.828;4.416;2022-11-15T09:49:20;7.63;;;1.38;;
19879;SDS011;10102;50.828;4.416;2022-11-15T09:51:50;5.18;;;1.40;;
19879;SDS011;10102;50.828;4.416;2022-11-15T09:57:02;6.18;;;1.60;;
19879;SDS011;10102;50.828;4.416;2022-11-15T10:04:56;7.47;;;1.60;;
19879;SDS011;10102;50.828;4.416;2022-11-15T10:10:13;4.30;;;1.20;;
19879;SDS011;10102;50.828;4.416;2022-11-15T10:12:52;8.57;;;1.23;;
19879;SDS011;10102;50.828;4.416;2022-11-15T10:15:18;11.25;;;1.52;;
19879;SDS011;10102;50.828;4.416;2022-11-15T10:22:51;7.75;;;1.52;;
19879;SDS011;10102;50.828;4.416;2022-11-15T10:25:31;5.50;;;1.25;;
19879;SDS011;10102;50.828;4.416;2022-11-15T10:28:09;8.45;;;1.42;;
19879;SDS011;10102;50.828;4.416;2022-11-15T10:30:48;14.18;;;1.70;;
19879;SDS011;10102;50.828;4.416;2022-11-15T10:38:56;4.50;;;1.00;;
19879;SDS011;10102;50.828;4.416;2022-11-15T10:44:14;13.80;;;1.35;;
19879;SDS011;10102;50.828;4.416;2022-11-15T10:46:43;9.77;;;1.30;;
19879;SDS011;10102;50.828;4.416;2022-11-15T10:54:23;6.85;;;1.73;;
19879;SDS011;10102;50.828;4.416;2022-11-15T10:57:00;5.60;;;1.42;;
19879;SDS011;10102;50.828;4.416;2022-11-15T10:59:33;7.03;;;1.33;;
19879;SDS011;10102;50.828;4.416;2022-11-15T11:02:02;7.30;;;1.52;;
19879;SDS011;10102;50.828;4.416;2022-11-15T11:04:51;10.38;;;1.38;;
19879;SDS011;10102;50.828;4.416;2022-11-15T11:07:21;11.23;;;1.45;;
19879;SDS011;10102;50.828;4.416;2022-11-15T11:09:56;4.60;;;1.27;;
19879;SDS011;10102;50.828;4.416;2022-11-15T11:12:27;9.52;;;1.48;;
19879;SDS011;10102;50.828;4.416;2022-11-15T11:14:55;4.75;;;1.30;;
19879;SDS011;10102;50.828;4.416;2022-11-15T11:22:37;7.00;;;1.52;;
19879;SDS011;10102;50.828;4.416;2022-11-15T11:25:35;3.90;;;1.33;;
19879;SDS011;10102;50.828;4.416;2022-11-15T11:28:28;6.47;;;1.52;;
19879;SDS011;10102;50.828;4.416;2022-11-15T11:36:45;3.60;;;1.17;;
19879;SDS011;10102;50.828;4.416;2022-11-15T11:44:34;4.80;;;1.30;;
19879;SDS011;10102;50.828;4.416;2022-11-15T11:47:14;6.07;;;1.50;;
19879;SDS011;10102;50.828;4.416;2022-11-15T11:49:53;8.07;;;1.40;;
19879;SDS011;10102;50.828;4.416;2022-11-15T11:55:45;4.28;;;1.67;;
19879;SDS011;10102;50.828;4.416;2022-11-15T12:04:03;4.65;;;1.20;;
19879;SDS011;10102;50.828;4.416;2022-11-15T12:07:00;7.50;;;1.60;;
19879;SDS011;10102;50.828;4.416;2022-11-15T12:15:04;9.45;;;1.60;;
19879;SDS011;10102;50.828;4.416;2022-11-15T12:17:39;5.53;;;1.73;;
19879;SDS011;10102;50.828;4.416;2022-11-15T12:20:14;5.90;;;1.70;;
19879;SDS011;10102;50.828;4.416;2022-11-15T12:23:23;3.03;;;1.60;;
19879;SDS011;10102;50.828;4.416;2022-11-15T12:25:47;3.92;;;1.65;;
19879;SDS011;10102;50.828;4.416;2022-11-15T12:28:24;6.95;;;2.05;;
19879;SDS011;10102;50.828;4.416;2022-11-15T12:31:19;5.68;;;1.45;;
19879;SDS011;10102;50.828;4.416;2022-11-15T12:36:47;5.20;;;1.65;;
19879;SDS011;10102;50.828;4.416;2022-11-15T12:39:15;4.15;;;1.50;;
19879;SDS011;10102;50.828;4.416;2022-11-15T12:41:43;4.65;;;1.10;;
19879;SDS011;10102;50.828;4.416;2022-11-15T12:47:04;7.60;;;2.05;;
19879;SDS011;10102;50.828;4.416;2022-11-15T13:02:18;2.13;;;1.10;;
19879;SDS011;10102;50.828;4.416;2022-11-15T13:04:49;3.47;;;1.10;;
19879;SDS011;10102;50.828;4.416;2022-11-15T13:12:59;8.02;;;1.77;;
19879;SDS011;10102;50.828;4.416;2022-11-15T13:15:31;5.57;;;1.60;;
19879;SDS011;10102;50.828;4.416;2022-11-15T13:17:58;5.43;;;2.00;;
19879;SDS011;10102;50.828;4.416;2022-11-15T13:20:28;4.80;;;1.40;;
19879;SDS011;10102;50.828;4.416;2022-11-15T13:23:07;5.72;;;1.52;;
19879;SDS011;10102;50.828;4.416;2022-11-15T13:25:50;4.93;;;1.42;;
19879;SDS011;10102;50.828;4.416;2022-11-15T13:28:42;3.55;;;1.80;;
19879;SDS011;10102;50.828;4.416;2022-11-15T13:33:45;4.80;;;1.77;;
19879;SDS011;10102;50.828;4.416;2022-11-15T13:36:19;5.63;;;1.75;;
19879;SDS011;10102;50.828;4.416;2022-11-15T13:38:53;5.28;;;1.50;;
19879;SDS011;10102;50.828;4.416;2022-11-15T13:41:24;12.02;;;1.38;;
19879;SDS011;10102;50.828;4.416;2022-11-15T13:43:55;3.40;;;1.23;;
19879;SDS011;10102;50.828;4.416;2022-11-15T13:46:23;3.33;;;1.15;;
19879;SDS011;10102;50.828;4.416;2022-11-15T13:48:57;4.72;;;1.63;;
19879;SDS011;10102;50.828;4.416;2022-11-15T13:56:46;10.30;;;1.40;;
19879;SDS011;10102;50.828;4.416;2022-11-15T13:59:37;4.22;;;1.98;;
19879;SDS011;10102;50.828;4.416;2022-11-15T14:02:18;5.70;;;1.80;;
19879;SDS011;10102;50.828;4.416;2022-11-15T14:04:51;6.72;;;1.20;;
19879;SDS011;10102;50.828;4.416;2022-11-15T14:07:19;4.05;;;1.85;;
19879;SDS011;10102;50.828;4.416;2022-11-15T14:09:46;1.83;;;1.15;;
19879;SDS011;10102;50.828;4.416;2022-11-15T14:14:58;3.80;;;1.65;;
19879;SDS011;10102;50.828;4.416;2022-11-15T14:19:53;6.90;;;1.60;;
19879;SDS011;10102;50.828;4.416;2022-11-15T14:22:20;2.83;;;1.50;;
19879;SDS011;10102;50.828;4.416;2022-11-15T14:24:50;8.10;;;1.42;;
19879;SDS011;10102;50.828;4.416;2022-11-15T14:27:29;4.40;;;1.40;;
19879;SDS011;10102;50.828;4.416;2022-11-15T14:29:55;2.15;;;1.33;;
19879;SDS011;10102;50.828;4.416;2022-11-15T14:32:24;3.10;;;1.52;;
19879;SDS011;10102;50.828;4.416;2022-11-15T14:34:59;2.83;;;1.35;;
19879;SDS011;10102;50.828;4.416;2022-11-15T14:39:58;2.00;;;1.35;;
19879;SDS011;10102;50.828;4.416;2022-11-15T14:42:24;7.75;;;2.35;;
19879;SDS011;10102;50.828;4.416;2022-11-15T14:44:50;2.45;;;1.58;;
19879;SDS011;10102;50.828;4.416;2022-11-15T14:47:16;2.38;;;1.60;;
19879;SDS011;10102;50.828;4.416;2022-11-15T14:49:42;2.72;;;1.55;;
19879;SDS011;10102;50.828;4.416;2022-11-15T14:52:31;2.40;;;1.60;;
19879;SDS011;10102;50.828;4.416;2022-11-15T14:54:59;2.25;;;1.25;;
19879;SDS011;10102;50.828;4.416;2022-11-15T14:57:27;3.10;;;1.30;;
19879;SDS011;10102;50.828;4.416;2022-11-15T14:59:53;3.30;;;1.40;;
19879;SDS011;10102;50.828;4.416;2022-11-15T15:02:20;5.45;;;1.55;;
19879;SDS011;10102;50.828;4.416;2022-11-15T15:04:47;5.35;;;2.00;;
19879;SDS011;10102;50.828;4.416;2022-11-15T15:07:13;3.38;;;1.60;;
19879;SDS011;10102;50.828;4.416;2022-11-15T15:09:40;2.90;;;1.38;;
19879;SDS011;10102;50.828;4.416;2022-11-15T15:12:16;3.38;;;1.67;;
19879;SDS011;10102;50.828;4.416;2022-11-15T15:14:43;3.10;;;1.90;;
19879;SDS011;10102;50.828;4.416;2022-11-15T15:17:10;3.10;;;2.13;;
19879;SDS011;10102;50.828;4.416;2022-11-15T15:19:35;4.07;;;1.42;;
19879;SDS011;10102;50.828;4.416;2022-11-15T15:22:01;2.15;;;1.70;;
19879;SDS011;10102;50.828;4.416;2022-11-15T15:24:27;5.07;;;2.15;;
19879;SDS011;10102;50.828;4.416;2022-11-15T15:26:52;2.42;;;1.83;;
19879;SDS011;10102;50.828;4.416;2022-11-15T15:29:18;3.13;;;1.80;;
19879;SDS011;10102;50.828;4.416;2022-11-15T15:31:44;3.70;;;1.63;;
19879;SDS011;10102;50.828;4.416;2022-11-15T15:34:09;3.55;;;2.30;;
19879;SDS011;10102;50.828;4.416;2022-11-15T15:36:35;6.05;;;1.80;;
19879;SDS011;10102;50.828;4.416;2022-11-15T15:39:00;3.60;;;2.22;;
19879;SDS011;10102;50.828;4.416;2022-11-15T15:41:26;7.05;;;2.08;;
19879;SDS011;10102;50.828;4.416;2022-11-15T15:43:52;4.00;;;2.38;;
19879;SDS011;10102;50.828;4.416;2022-11-15T15:46:18;6.07;;;2.33;;
19879;SDS011;10102;50.828;4.416;2022-11-15T15:48:45;4.20;;;2.47;;
19879;SDS011;10102;50.828;4.416;2022-11-15T15:51:11;3.47;;;2.20;;
19879;SDS011;10102;50.828;4.416;2022-11-15T15:53:37;2.80;;;2.05;;
19879;SDS011;10102;50.828;4.416;2022-11-15T15:56:03;5.82;;;2.00;;
19879;SDS011;10102;50.828;4.416;2022-11-15T15:58:29;3.13;;;1.98;;
19879;SDS011;10102;50.828;4.416;2022-11-15T16:00:56;6.03;;;2.47;;
19879;SDS011;10102;50.828;4.416;2022-11-15T16:03:22;3.03;;;2.13;;
19879;SDS011;10102;50.828;4.416;2022-11-15T16:05:49;5.10;;;2.38;;
19879;SDS011;10102;50.828;4.416;2022-11-15T16:08:19;3.38;;;2.25;;
19879;SDS011;10102;50.828;4.416;2022-11-15T16:10:47;5.03;;;2.50;;
19879;SDS011;10102;50.828;4.416;2022-11-15T16:13:13;5.88;;;2.78;;
19879;SDS011;10102;50.828;4.416;2022-11-15T16:15:39;3.95;;;2.40;;
19879;SDS011;10102;50.828;4.416;2022-11-15T16:18:05;4.18;;;2.13;;
19879;SDS011;10102;50.828;4.416;2022-11-15T16:20:39;3.88;;;2.45;;
19879;SDS011;10102;50.828;4.416;2022-11-15T16:23:18;6.00;;;2.53;;
19879;SDS011;10102;50.828;4.416;2022-11-15T16:25:47;6.43;;;2.85;;
19879;SDS011;10102;50.828;4.416;2022-11-15T16:30:48;5.93;;;2.40;;
19879;SDS011;10102;50.828;4.416;2022-11-15T16:33:14;6.53;;;2.35;;
19879;SDS011;10102;50.828;4.416;2022-11-15T16:35:42;3.85;;;2.47;;
19879;SDS011;10102;50.828;4.416;2022-11-15T16:38:12;3.55;;;2.60;;
19879;SDS011;10102;50.828;4.416;2022-11-15T16:40:40;6.68;;;2.85;;
19879;SDS011;10102;50.828;4.416;2022-11-15T16:43:06;4.07;;;2.63;;
19879;SDS011;10102;50.828;4.416;2022-11-15T16:45:33;6.55;;;5.28;;
19879;SDS011;10102;50.828;4.416;2022-11-15T16:47:59;6.00;;;3.85;;
19879;SDS011;10102;50.828;4.416;2022-11-15T16:50:26;4.75;;;2.80;;
19879;SDS011;10102;50.828;4.416;2022-11-15T16:52:54;4.90;;;3.15;;
19879;SDS011;10102;50.828;4.416;2022-11-15T16:55:22;6.97;;;3.72;;
19879;SDS011;10102;50.828;4.416;2022-11-15T16:57:49;7.30;;;4.60;;
19879;SDS011;10102;50.828;4.416;2022-11-15T17:00:16;5.00;;;2.85;;
19879;SDS011;10102;50.828;4.416;2022-11-15T17:02:43;8.38;;;3.92;;
19879;SDS011;10102;50.828;4.416;2022-11-15T17:05:10;4.75;;;3.90;;
19879;SDS011;10102;50.828;4.416;2022-11-15T17:07:37;4.97;;;3.65;;
19879;SDS011;10102;50.828;4.416;2022-11-15T17:10:03;6.05;;;3.28;;
19879;SDS011;10102;50.828;4.416;2022-11-15T17:12:29;5.50;;;2.97;;
19879;SDS011;10102;50.828;4.416;2022-11-15T17:14:55;6.75;;;3.78;;
19879;SDS011;10102;50.828;4.416;2022-11-15T17:17:21;4.25;;;3.40;;